Terminal Aerodrome Forecast
Issued by NWS

Home | Current Version | Previous Version | Text Only | Print | Product List | Glossary On
Versions: 1 2 3 4 5 6 7 8 9 10 11 12 13
000
FTUS43 KMQT 261738
TAFCMX
TAF
KCMX 261738Z 2618/2718 05010KT 4SM -SHRA BR OVC006
     FM262100 02011G24KT 2SM -SHRA OVC003
     FM270000 01011G24KT 2SM -FZRA OVC003
     FM270900 35011G22KT 5SM -FZRA OVC003
     FM271400 33011G21KT 2SM -SHRA OVC004
     FM271500 33012G20KT 1 1/2SM -SHRA OVC006=

USA.gov is the U.S. government's official web portal to all federal, state and local government web resources and services.